Time;durP1;ratioP1;P1;durP2;ratioP2;P2;SDS_P1;SDS_P2;PMS_P1;PMS_P2;Temp;Humidity;BMP_temperature;BMP_pressure;BME280_temperature;BME280_humidity;BME280_pressure;Samples;Min_cycle;Max_cycle;Signal;HPM_P1;HPM_P2
2022/06/29 00:00:16;;;;;;;7.90;6.80;;;;;;;17.69;100.00;62694.66;5050352;28;20201;-74
2022/06/29 00:02:43;;;;;;;12.47;6.40;;;;;;;17.65;100.00;62687.78;5051619;28;20208;-73
2022/06/29 00:05:12;;;;;;;7.07;6.37;;;;;;;17.66;100.00;62688.84;5054565;28;20628;-74
2022/06/29 00:07:40;;;;;;;8.03;6.77;;;;;;;17.68;100.00;62690.47;5054458;28;20286;-74
2022/06/29 00:10:08;;;;;;;9.40;6.40;;;;;;;17.69;100.00;62692.09;5053037;28;20197;-74
2022/06/29 00:12:35;;;;;;;8.80;7.10;;;;;;;17.70;100.00;62695.75;5054364;28;20595;-75
2022/06/29 00:15:05;;;;;;;9.03;7.70;;;;;;;17.70;100.00;62695.22;5054169;28;20655;-74
2022/06/29 00:17:34;;;;;;;10.83;8.23;;;;;;;17.71;100.00;62693.69;5054233;28;20209;-74
2022/06/29 00:20:04;;;;;;;8.90;6.87;;;;;;;17.84;100.00;62707.19;5053976;28;20205;-73
2022/06/29 00:22:31;;;;;;;8.63;7.10;;;;;;;17.77;100.00;62699.66;5054190;28;20205;-74
2022/06/29 00:25:00;;;;;;;11.03;6.97;;;;;;;17.94;100.00;62723.13;5054126;28;20209;-73
2022/06/29 00:27:27;;;;;;;8.00;6.70;;;;;;;17.98;100.00;62722.28;5053939;28;20695;-74
2022/06/29 00:29:54;;;;;;;9.40;7.47;;;;;;;17.94;100.00;62723.13;5053925;28;20275;-73
2022/06/29 00:32:24;;;;;;;12.70;6.73;;;;;;;17.32;100.00;62652.16;5053758;28;20197;-74
2022/06/29 00:34:51;;;;;;;11.17;6.87;;;;;;;17.94;100.00;62721.09;5054102;28;20208;-74
2022/06/29 00:37:19;;;;;;;11.23;7.83;;;;;;;17.91;100.00;62714.75;5053563;28;20209;-73
2022/06/29 00:39:46;;;;;;;11.63;7.87;;;;;;;17.67;100.00;62695.09;5054212;28;20205;-75
2022/06/29 00:42:13;;;;;;;10.27;7.73;;;;;;;17.88;100.00;62711.50;5053972;28;20593;-73
2022/06/29 00:44:40;;;;;;;8.93;7.40;;;;;;;17.56;100.00;62677.53;5054290;28;20607;-74
2022/06/29 00:47:08;;;;;;;11.73;7.13;;;;;;;17.66;100.00;62691.44;5054137;28;20290;-74
2022/06/29 00:49:37;;;;;;;7.37;6.63;;;;;;;17.75;100.00;62702.63;5056224;28;20197;-74
2022/06/29 00:52:07;;;;;;;7.70;6.00;;;;;;;16.81;100.00;62599.75;5055660;28;20225;-73
2022/06/29 00:54:39;;;;;;;8.83;5.90;;;;;;;17.48;100.00;62668.88;5064931;28;20185;-74
2022/06/29 00:57:12;;;;;;;7.87;6.63;;;;;;;17.16;100.00;62639.53;5069017;28;20212;-75
2022/06/29 00:59:45;;;;;;;9.07;6.57;;;;;;;16.58;100.00;62574.97;5055896;28;20200;-73
2022/06/29 01:02:15;;;;;;;10.47;6.50;;;;;;;16.90;100.00;62606.88;5064373;28;20205;-74
2022/06/29 01:04:46;;;;;;;7.93;6.53;;;;;;;17.05;100.00;62623.03;5066224;28;20212;-76
2022/06/29 01:07:15;;;;;;;11.70;6.20;;;;;;;17.02;100.00;62622.41;5061290;28;20232;-75
2022/06/29 01:09:42;;;;;;;8.83;6.30;;;;;;;17.12;100.00;62625.47;5055114;28;20583;-74
2022/06/29 01:12:10;;;;;;;8.10;6.57;;;;;;;17.06;100.00;62628.75;5054672;28;20205;-74
2022/06/29 01:14:37;;;;;;;7.00;6.27;;;;;;;17.00;100.00;62622.81;5053630;28;20736;-73
2022/06/29 01:17:05;;;;;;;9.10;6.37;;;;;;;16.82;100.00;62598.25;5053273;28;20224;-74
2022/06/29 01:19:32;;;;;;;15.80;7.13;;;;;;;16.76;100.00;62594.38;5053772;28;20216;-73
2022/06/29 01:22:19;;;;;;;9.13;5.73;;;;;;;17.02;100.00;62624.44;5053025;28;20686;-73
2022/06/29 01:24:48;;;;;;;8.40;6.70;;;;;;;16.89;100.00;62603.22;5053385;28;20274;-74
2022/06/29 01:27:17;;;;;;;11.07;6.80;;;;;;;16.43;100.00;62561.34;5052486;28;20229;-73
2022/06/29 01:29:45;;;;;;;9.13;6.10;;;;;;;16.59;100.00;62573.47;5053165;28;20581;-74
2022/06/29 01:32:12;;;;;;;8.23;7.00;;;;;;;16.89;100.00;62610.94;5052866;28;20201;-74
2022/06/29 01:34:39;;;;;;;10.63;6.30;;;;;;;16.85;100.00;62606.63;5053273;28;20201;-74
2022/06/29 01:37:07;;;;;;;8.40;7.17;;;;;;;16.82;100.00;62600.84;5052692;28;20302;-74
2022/06/29 01:39:38;;;;;;;9.03;6.23;;;;;;;16.85;100.00;62602.03;5052805;28;20668;-75
2022/06/29 01:42:07;;;;;;;9.10;6.53;;;;;;;16.27;100.00;62541.53;5052855;28;20204;-74
2022/06/29 01:44:35;;;;;;;12.17;7.53;;;;;;;16.82;100.00;62598.25;5052905;28;20197;-74
2022/06/29 01:47:02;;;;;;;9.43;6.67;;;;;;;16.89;100.00;62606.34;5052353;28;20232;-75
2022/06/29 01:49:29;;;;;;;7.07;6.40;;;;;;;16.92;100.00;62614.19;5052318;28;20656;-75
2022/06/29 01:51:57;;;;;;;8.93;6.83;;;;;;;16.98;100.00;62620.66;5053522;28;20260;-73
2022/06/29 01:54:24;;;;;;;8.67;6.57;;;;;;;16.96;100.00;62612.81;5072442;28;20205;-74
2022/06/29 01:56:53;;;;;;;9.00;7.70;;;;;;;16.81;100.00;62599.75;5072258;28;20208;-73
2022/06/29 01:59:21;;;;;;;9.60;6.90;;;;;;;16.96;100.00;62613.34;5071984;28;20204;-73
2022/06/29 02:01:48;;;;;;;12.70;6.80;;;;;;;16.98;100.00;62618.09;5072343;28;20211;-74
2022/06/29 02:04:16;;;;;;;11.10;6.07;;;;;;;16.92;100.00;62612.13;5056220;28;20345;-73
2022/06/29 02:06:44;;;;;;;7.37;6.67;;;;;;;16.77;100.00;62598.00;5072448;28;20235;-76
2022/06/29 02:09:12;;;;;;;10.00;7.27;;;;;;;16.65;100.00;62580.47;5071969;28;20219;-73
2022/06/29 02:11:41;;;;;;;13.47;6.60;;;;;;;15.95;100.00;62505.59;5071827;28;20204;-74
2022/06/29 02:14:09;;;;;;;9.83;7.27;;;;;;;16.49;100.00;62567.84;5071925;28;20223;-75
2022/06/29 02:16:37;;;;;;;6.73;5.87;;;;;;;16.54;100.00;62568.09;5072361;28;20583;-73
2022/06/29 02:19:06;;;;;;;8.07;5.93;;;;;;;16.51;100.00;62562.28;5072075;28;20192;-73
2022/06/29 02:21:34;;;;;;;9.00;6.87;;;;;;;16.49;100.00;62565.25;5072108;28;20200;-75
2022/06/29 02:24:04;;;;;;;8.43;6.17;;;;;;;16.57;100.00;62581.59;5071819;28;20200;-74
2022/06/29 02:26:31;;;;;;;7.40;6.40;;;;;;;16.66;100.00;62578.44;5071217;28;20639;-74
2022/06/29 02:28:58;;;;;;;10.10;6.03;;;;;;;16.59;100.00;62576.03;5071568;28;20200;-74
2022/06/29 02:36:57;;;;;;;8.77;5.53;;;;;;;16.68;100.00;62583.19;5057525;28;20265;-75
2022/06/29 02:39:24;;;;;;;6.27;5.67;;;;;;;16.64;100.00;62579.38;5071273;28;20299;-75
2022/06/29 02:41:52;;;;;;;7.23;5.30;;;;;;;16.55;100.00;62569.16;5069959;28;20262;-73
2022/06/29 02:44:20;;;;;;;6.57;5.60;;;;;;;16.42;100.00;62557.72;5067898;28;20207;-75
2022/06/29 02:46:50;;;;;;;14.27;6.00;;;;;;;16.23;100.00;62539.81;5051637;28;20220;-75
2022/06/29 02:49:17;;;;;;;6.33;5.60;;;;;;;16.16;100.00;62529.69;5051585;28;20660;-76
2022/06/29 02:51:44;;;;;;;7.97;6.03;;;;;;;16.18;100.00;62529.81;5051086;28;20624;-75
2022/06/29 02:54:12;;;;;;;10.57;6.10;;;;;;;15.97;100.00;62518.03;5054593;28;20238;-74
2022/06/29 02:56:39;;;;;;;10.77;6.03;;;;;;;16.29;100.00;62541.13;5071609;28;20208;-73
2022/06/29 02:59:06;;;;;;;11.67;6.47;;;;;;;16.20;100.00;62534.53;5071180;28;20291;-74
2022/06/29 03:01:33;;;;;;;6.73;5.90;;;;;;;16.20;100.00;62531.97;5071229;28;20246;-74
2022/06/29 03:04:02;;;;;;;10.50;6.20;;;;;;;16.38;100.00;62559.06;5057497;28;20205;-74
2022/06/29 03:06:29;;;;;;;11.33;6.53;;;;;;;16.37;100.00;62552.31;5043739;28;20207;-73
2022/06/29 03:08:55;;;;;;;7.33;6.63;;;;;;;16.38;100.00;62553.41;5071194;28;20200;-74
2022/06/29 03:11:22;;;;;;;9.63;6.07;;;;;;;16.03;100.00;62518.81;5070918;28;20239;-74
2022/06/29 03:13:50;;;;;;;11.13;7.10;;;;;;;16.28;100.00;62542.63;5082022;28;20206;-75
2022/06/29 03:16:18;;;;;;;11.37;7.33;;;;;;;16.39;100.00;62557.03;5070571;28;20212;-75
2022/06/29 03:18:46;;;;;;;12.23;7.27;;;;;;;16.42;100.00;62558.22;5071257;28;20200;-74
2022/06/29 03:21:14;;;;;;;11.57;7.40;;;;;;;16.42;100.00;62557.72;5071132;28;20200;-75
2022/06/29 03:23:41;;;;;;;12.03;7.57;;;;;;;16.42;100.00;62557.72;5071000;28;20208;-74
2022/06/29 03:26:08;;;;;;;11.37;8.13;;;;;;;16.40;100.00;62558.66;5070985;28;20208;-75
2022/06/29 03:28:36;;;;;;;13.67;7.60;;;;;;;16.64;100.00;62581.44;5041958;28;20277;-73
2022/06/29 03:31:04;;;;;;;11.03;7.53;;;;;;;16.75;100.00;62590.72;5070469;28;20239;-74
2022/06/29 03:33:32;;;;;;;16.10;7.63;;;;;;;16.57;100.00;62571.31;5070826;28;20740;-75
2022/06/29 03:35:59;;;;;;;16.27;8.27;;;;;;;16.46;100.00;62559.44;5070972;28;20211;-74
2022/06/29 03:38:27;;;;;;;11.33;7.07;;;;;;;16.75;100.00;62590.72;5073142;28;20200;-74
2022/06/29 03:40:56;;;;;;;9.27;7.33;;;;;;;16.86;100.00;62607.72;5074878;28;20231;-75
2022/06/29 03:43:23;;;;;;;10.10;6.60;;;;;;;16.67;100.00;62585.22;5074562;28;20204;-74
2022/06/29 03:45:50;;;;;;;9.40;7.63;;;;;;;16.52;100.00;62571.06;5058791;28;20209;-75
2022/06/29 03:48:18;;;;;;;10.63;7.93;;;;;;;16.67;100.00;62587.22;5054616;28;20274;-75
2022/06/29 03:50:45;;;;;;;12.17;7.73;;;;;;;16.71;100.00;62586.41;5054972;28;20616;-75
2022/06/29 03:53:12;;;;;;;12.90;7.27;;;;;;;16.88;100.00;62604.72;5054429;28;20220;-75
2022/06/29 03:55:42;;;;;;;11.00;7.90;;;;;;;16.53;100.00;62572.16;5054858;28;20204;-73
2022/06/29 03:58:10;;;;;;;18.10;7.87;;;;;;;17.12;100.00;62630.59;5054479;28;20668;-74
2022/06/29 04:00:37;;;;;;;12.10;7.80;;;;;;;17.07;100.00;62627.78;5054886;28;20201;-76
2022/06/29 04:03:05;;;;;;;11.23;7.67;;;;;;;16.51;100.00;62564.84;5054562;28;20200;-73
2022/06/29 04:05:32;;;;;;;11.57;8.20;;;;;;;17.20;100.00;62644.38;5054655;28;20213;-74
2022/06/29 04:07:59;;;;;;;10.87;7.40;;;;;;;17.21;100.00;62639.75;5054284;28;20231;-73
2022/06/29 04:10:26;;;;;;;11.10;8.37;;;;;;;17.38;100.00;62661.22;5054288;28;20209;-74
2022/06/29 04:12:57;;;;;;;11.07;7.60;;;;;;;17.44;100.00;62664.56;5054068;28;20640;-73
2022/06/29 04:15:26;;;;;;;12.33;8.13;;;;;;;17.48;100.00;62666.84;5054499;28;20212;-74
2022/06/29 04:17:55;;;;;;;16.70;7.60;;;;;;;17.54;100.00;62675.91;5054476;28;20676;-75
2022/06/29 04:23:08;;;;;;;14.83;7.77;;;;;;;17.64;100.00;62686.16;5054338;28;20208;-75
2022/06/29 04:25:35;;;;;;;10.10;7.73;;;;;;;17.73;100.00;62696.41;5066082;28;20689;-75
2022/06/29 04:28:06;;;;;;;11.77;8.17;;;;;;;16.86;100.00;62602.56;5055146;28;20236;-76
2022/06/29 04:30:35;;;;;;;15.00;8.20;;;;;;;17.69;100.00;62692.09;5040278;28;20228;-73
2022/06/29 04:33:03;;;;;;;13.23;7.90;;;;;;;17.77;100.00;62699.66;5054173;28;20707;-74
2022/06/29 04:35:30;;;;;;;16.17;8.53;;;;;;;17.87;100.00;62710.97;5053764;28;20201;-75
2022/06/29 04:37:57;;;;;;;13.67;8.77;;;;;;;17.84;100.00;62707.72;5053760;28;20205;-74
2022/06/29 04:40:24;;;;;;;15.40;8.60;;;;;;;18.03;100.00;62730.28;5053876;28;20201;-74
2022/06/29 04:42:51;;;;;;;13.00;8.40;;;;;;;18.16;100.00;62741.72;5053990;28;20212;-76
2022/06/29 04:48:05;;;;;;;13.67;7.77;;;;;;;18.35;100.00;62767.38;5053023;28;20235;-74
2022/06/29 04:50:32;;;;;;;12.63;7.73;;;;;;;18.69;100.00;62798.97;5053835;28;20622;-73
2022/06/29 04:53:00;;;;;;;11.73;8.47;;;;;;;18.94;100.00;62825.41;5053725;28;20240;-74
2022/06/29 04:55:29;;;;;;;16.00;9.00;;;;;;;18.92;100.00;62820.66;5053580;28;20209;-74
2022/06/29 04:57:56;;;;;;;15.73;9.27;;;;;;;18.72;100.00;62802.19;5061245;28;20288;-75
2022/06/29 05:00:25;;;;;;;15.03;9.07;;;;;;;19.18;100.00;62851.88;5073186;28;20228;-75
2022/06/29 05:02:52;;;;;;;16.70;8.47;;;;;;;19.45;100.00;62882.56;5073396;28;20208;-74
2022/06/29 05:05:20;;;;;;;13.30;8.53;;;;;;;19.07;100.00;62842.03;5073149;28;20251;-74
2022/06/29 05:07:47;;;;;;;21.77;9.00;;;;;;;19.54;100.00;62889.72;5073205;28;20231;-74
2022/06/29 05:10:16;;;;;;;17.63;8.60;;;;;;;19.67;100.00;62903.75;5073106;28;20204;-74
2022/06/29 05:12:44;;;;;;;17.67;8.13;;;;;;;19.71;100.00;62908.06;5073113;28;20693;-75
2022/06/29 05:15:11;;;;;;;15.33;8.03;;;;;;;19.87;100.00;62922.78;5072886;28;20208;-74
2022/06/29 05:17:41;;;;;;;15.60;8.47;;;;;;;20.16;100.00;62956.72;5073360;28;20201;-73
2022/06/29 05:20:11;;;;;;;16.10;9.27;;;;;;;20.27;100.00;62968.09;5068486;28;20216;-73
2022/06/29 05:22:38;;;;;;;15.60;9.27;;;;;;;20.24;100.00;62962.81;5073594;28;20233;-75
2022/06/29 05:25:06;;;;;;;17.67;10.60;;;;;;;20.05;100.00;62947.41;5068925;28;20648;-73
2022/06/29 05:27:34;;;;;;;15.03;9.07;;;;;;;20.45;100.00;62988.09;5063559;28;20232;-75
2022/06/29 05:30:02;;;;;;;22.03;9.83;;;;;;;20.57;100.00;62998.47;5072946;28;20232;-74
2022/06/29 05:32:29;;;;;;;15.30;9.30;;;;;;;20.92;100.00;63038.94;5073039;28;20200;-73
2022/06/29 05:34:57;;;;;;;17.93;8.67;;;;;;;21.43;100.00;63093.06;5072783;28;20754;-74
2022/06/29 05:37:24;;;;;;;15.60;9.43;;;;;;;21.34;100.00;63080.72;5072712;28;20204;-74
2022/06/29 05:39:51;;;;;;;15.90;9.13;;;;;;;21.29;100.00;63077.91;5072808;28;20208;-73
2022/06/29 05:42:18;;;;;;;16.60;9.17;;;;;;;21.60;100.00;63111.47;5058735;28;20200;-75
2022/06/29 05:44:46;;;;;;;14.20;9.17;;;;;;;21.52;100.00;63100.75;5065687;28;20201;-74
2022/06/29 05:47:14;;;;;;;15.33;9.87;;;;;;;21.36;100.00;63082.88;5052886;28;20205;-75
2022/06/29 05:49:43;;;;;;;15.43;10.03;;;;;;;21.75;100.00;63127.72;5052641;28;20197;-74
2022/06/29 05:52:11;;;;;;;16.23;9.50;;;;;;;22.02;100.00;63156.97;5052685;28;20228;-73
2022/06/29 05:54:38;;;;;;;14.13;9.47;;;;;;;21.69;100.00;63126.41;5052548;28;20193;-74
2022/06/29 05:57:06;;;;;;;23.17;10.03;;;;;;;22.11;100.00;63169.31;5062572;28;20208;-74
2022/06/29 05:59:33;;;;;;;17.53;10.00;;;;;;;22.08;100.00;63160.88;5072055;28;20216;-74
2022/06/29 06:02:00;;;;;;;15.87;9.70;;;;;;;21.97;100.00;63148.41;5071751;28;20250;-73
2022/06/29 06:04:27;;;;;;;13.97;9.97;;;;;;;22.66;100.00;63226.31;5072314;28;20200;-74
2022/06/29 06:06:54;;;;;;;11.13;9.47;;;;;;;22.68;100.00;63227.94;5069691;28;20600;-75
2022/06/29 06:09:26;;;;;;;14.93;10.13;;;;;;;22.85;100.00;63245.81;5069670;28;20223;-74
2022/06/29 06:11:54;;;;;;;17.73;8.90;;;;;;;22.94;100.00;63255.59;5075655;28;20232;-75
2022/06/29 06:14:22;;;;;;;25.47;10.87;;;;;;;22.91;100.00;63252.31;5071037;28;20205;-74
2022/06/29 06:16:50;;;;;;;15.73;10.43;;;;;;;23.21;100.00;63284.84;5072084;28;20586;-73
2022/06/29 06:19:17;;;;;;;18.40;10.37;;;;;;;23.18;100.00;63281.59;5071829;28;20587;-77
2022/06/29 06:21:44;;;;;;;15.77;11.53;;;;;;;23.33;100.00;63293.22;5072104;28;20227;-74
2022/06/29 06:24:11;;;;;;;14.80;11.37;;;;;;;23.52;100.00;63323.13;5072170;28;20667;-73
2022/06/29 06:26:41;;;;;;;17.10;11.53;;;;;;;23.55;100.00;63316.53;5063993;28;20573;-75
2022/06/29 06:29:08;;;;;;;17.50;11.67;;;;;;;23.21;100.00;63285.38;5065877;28;20239;-73
2022/06/29 06:31:36;;;;;;;20.23;11.80;;;;;;;23.19;100.00;63282.66;5071954;28;20203;-74
2022/06/29 06:34:03;;;;;;;16.43;11.70;;;;;;;23.40;100.00;63302.88;5071452;28;20308;-73
2022/06/29 06:36:32;;;;;;;28.00;11.60;;;;;;;23.85;100.00;63354.25;5071470;28;20645;-74
2022/06/29 06:39:00;;;;;;;18.80;11.10;;;;;;;24.01;100.00;63371.06;5071417;28;20197;-73
2022/06/29 06:41:26;;;;;;;13.73;10.73;;;;;;;24.27;100.00;63397.25;5071508;28;20208;-75
2022/06/29 06:43:55;;;;;;;18.60;11.90;;;;;;;24.51;100.00;63427.97;5072090;28;20196;-74
2022/06/29 06:46:23;;;;;;;17.87;11.07;;;;;;;24.52;100.00;63426.44;5050594;28;20208;-75
2022/06/29 06:48:51;;;;;;;15.70;11.90;;;;;;;23.91;100.00;63355.56;5059382;28;20224;-74
2022/06/29 06:51:19;;;;;;;12.93;10.40;;;;;;;24.25;100.00;63397.69;5071514;28;20274;-75
2022/06/29 06:53:47;;;;;;;16.43;11.47;;;;;;;24.47;100.00;63420.47;5071709;28;20232;-75
2022/06/29 06:56:16;;;;;;;21.20;11.37;;;;;;;24.68;100.00;63445.88;5071518;28;20209;-74
2022/06/29 06:58:43;;;;;;;14.27;10.43;;;;;;;24.90;100.00;63465.13;5071722;28;20270;-74
2022/06/29 07:01:12;;;;;;;17.87;11.10;;;;;;;24.96;100.00;63469.03;5071099;28;20545;-74
2022/06/29 07:03:40;;;;;;;15.43;10.80;;;;;;;24.83;100.00;63459.59;5071014;28;20205;-73
2022/06/29 07:06:09;;;;;;;17.77;11.43;;;;;;;24.86;100.00;63463.38;5071081;28;20211;-74
2022/06/29 07:08:39;;;;;;;18.20;11.53;;;;;;;24.84;100.00;63466.41;5072015;28;20264;-74
2022/06/29 07:11:07;;;;;;;17.47;11.03;;;;;;;25.04;100.00;63482.38;5071282;28;20703;-74
2022/06/29 07:13:35;;;;;;;20.10;11.80;;;;;;;24.96;100.00;63474.22;5072367;28;20220;-74
2022/06/29 07:16:04;;;;;;;15.27;11.40;;;;;;;25.43;100.00;63524.75;5071317;28;20200;-74
2022/06/29 07:18:33;;;;;;;15.60;11.33;;;;;;;25.22;100.00;63501.91;5073606;28;20258;-74
2022/06/29 07:21:01;;;;;;;24.83;12.63;;;;;;;25.44;100.00;63525.84;5083566;28;20210;-73
2022/06/29 07:23:29;;;;;;;18.97;11.33;;;;;;;25.78;100.00;63562.78;5076483;28;20249;-74
2022/06/29 07:25:56;;;;;;;20.63;10.90;;;;;;;26.02;100.00;63585.69;5091116;28;20203;-73
2022/06/29 07:28:24;;;;;;;15.03;10.93;;;;;;;25.92;100.00;63578.00;5086672;28;20280;-75
2022/06/29 07:30:51;;;;;;;16.17;11.13;;;;;;;25.71;100.00;63557.78;5087454;28;20266;-74
2022/06/29 07:33:18;;;;;;;16.07;10.00;;;;;;;25.85;100.00;63567.22;5081327;28;20207;-76
2022/06/29 07:35:47;;;;;;;12.53;9.60;;;;;;;25.80;100.00;63562.34;5057994;28;20674;-74
2022/06/29 07:38:18;;;;;;;11.77;9.40;;;;;;;25.82;100.00;63561.34;5072084;28;20218;-74
2022/06/29 07:40:46;;;;;;;11.17;9.87;;;;;;;26.63;100.00;63654.09;5069632;28;20303;-74
2022/06/29 07:43:13;;;;;;;14.23;9.03;;;;;;;26.82;100.00;63672.19;5070699;28;20223;-74
2022/06/29 07:45:42;;;;;;;18.40;10.20;;;;;;;26.49;100.00;63636.25;5056036;28;20597;-73
2022/06/29 07:48:10;;;;;;;13.63;9.70;;;;;;;26.80;100.00;63672.06;5051213;28;20229;-73
2022/06/29 07:50:37;;;;;;;13.03;9.90;;;;;;;26.81;100.00;63673.69;5055196;28;20197;-73
2022/06/29 07:53:06;;;;;;;15.70;10.03;;;;;;;26.72;100.00;63661.31;5053880;28;20278;-74
2022/06/29 07:55:33;;;;;;;21.00;10.57;;;;;;;26.61;100.00;63651.94;5050668;28;20197;-74
2022/06/29 07:58:01;;;;;;;14.50;10.00;;;;;;;26.64;100.00;63657.81;5049901;28;20203;-75
2022/06/29 08:00:28;;;;;;;11.03;9.90;;;;;;;26.89;100.00;63682.41;5050534;28;20279;-74
2022/06/29 08:02:56;;;;;;;19.47;10.83;;;;;;;27.05;100.00;63699.78;5067525;28;20212;-75
2022/06/29 08:05:24;;;;;;;18.00;10.60;;;;;;;27.25;100.00;63724.16;5070944;28;20207;-74
2022/06/29 08:07:52;;;;;;;14.43;10.60;;;;;;;27.16;100.00;63713.84;5070894;28;20209;-74
2022/06/29 08:10:21;;;;;;;11.67;9.50;;;;;;;27.71;100.00;63773.16;5070187;28;20220;-75
2022/06/29 08:12:48;;;;;;;17.03;10.43;;;;;;;27.11;100.00;63706.31;5070705;28;20208;-74
2022/06/29 08:15:17;;;;;;;13.50;9.57;;;;;;;28.20;100.00;63823.91;5070268;28;20295;-76
2022/06/29 08:17:48;;;;;;;13.00;9.50;;;;;;;28.31;100.00;63835.88;5070845;28;20713;-74
2022/06/29 08:20:16;;;;;;;13.20;9.83;;;;;;;28.50;100.00;63856.56;5067726;28;20209;-75
2022/06/29 08:22:43;;;;;;;12.07;9.33;;;;;;;28.29;100.00;63831.09;5059589;28;20208;-75
2022/06/29 08:25:12;;;;;;;15.33;10.10;;;;;;;28.21;100.00;63827.63;5073726;28;20208;-73
2022/06/29 08:27:42;;;;;;;16.60;9.77;;;;;;;28.23;100.00;63827.19;5073908;28;20204;-75
2022/06/29 08:30:10;;;;;;;17.53;9.77;;;;;;;27.61;100.00;63759.66;5073265;28;20243;-74
2022/06/29 08:32:39;;;;;;;18.03;9.70;;;;;;;28.26;100.00;63830.44;5074036;28;20205;-74
2022/06/29 08:35:07;;;;;;;12.57;8.50;;;;;;;28.70;100.00;63878.38;5074058;28;20291;-74
2022/06/29 08:37:34;;;;;;;12.60;8.70;;;;;;;28.71;100.00;63879.47;5073732;28;20689;-75
2022/06/29 08:40:01;;;;;;;8.63;7.70;;;;;;;28.92;100.00;63902.34;5073785;28;20200;-74
2022/06/29 08:42:28;;;;;;;12.83;8.63;;;;;;;29.03;100.00;63916.97;5073692;28;20227;-75
2022/06/29 08:44:58;;;;;;;9.07;7.70;;;;;;;29.03;100.00;63914.34;5065289;28;20196;-74
2022/06/29 08:47:26;;;;;;;12.50;7.87;;;;;;;28.92;100.00;63904.97;5053766;28;20600;-73
2022/06/29 08:49:52;;;;;;;8.03;6.70;;;;;;;29.10;100.00;63927.19;5053629;28;20660;-74
2022/06/29 08:52:20;;;;;;;10.07;6.93;;;;;;;28.98;100.00;63908.88;5053321;28;20218;-74
2022/06/29 08:54:48;;;;;;;8.03;5.57;;;;;;;28.97;100.00;63907.81;5053637;28;20204;-74
2022/06/29 08:57:16;;;;;;;5.53;4.97;;;;;;;29.31;100.00;63943.78;5053287;28;20220;-74
2022/06/29 08:59:44;;;;;;;7.60;6.00;;;;;;;29.42;100.00;63955.75;5053370;28;20628;-76
2022/06/29 09:02:14;;;;;;;8.43;5.93;;;;;;;29.38;100.00;63956.66;5052995;28;20216;-74
2022/06/29 09:04:41;;;;;;;10.17;5.70;;;;;;;29.58;100.00;63973.22;5053182;28;20668;-75
2022/06/29 09:07:09;;;;;;;9.90;6.30;;;;;;;29.78;100.00;63995.03;5053637;28;20714;-73
2022/06/29 09:10:00;;;;;;;11.20;6.67;;;;;;;29.77;100.00;63991.31;5055361;28;20732;-73
2022/06/29 09:12:26;;;;;;;8.70;6.53;;;;;;;29.86;100.00;64004.28;5052037;28;20227;-73
2022/06/29 09:14:53;;;;;;;18.20;5.70;;;;;;;30.10;100.00;64035.19;5073024;28;20207;-73
2022/06/29 09:17:22;;;;;;;10.03;5.17;;;;;;;30.40;100.00;64060.03;5073434;28;20207;-74
2022/06/29 09:19:50;;;;;;;8.93;5.30;;;;;;;30.80;100.00;64106.31;5072960;28;20206;-75
2022/06/29 09:22:18;;;;;;;10.37;4.93;;;;;;;30.67;100.00;64094.75;5073365;28;20260;-75
2022/06/29 09:24:45;;;;;;;6.70;4.70;;;;;;;31.36;100.00;64166.34;5077726;28;20271;-72
2022/06/29 09:27:13;;;;;;;8.00;5.27;;;;;;;31.24;100.00;64159.06;5073359;28;20268;-75
2022/06/29 09:29:42;;;;;;;9.60;4.83;;;;;;;31.56;100.00;64188.19;5071740;28;20250;-74
2022/06/29 09:32:16;;;;;;;11.90;4.90;;;;;;;31.87;100.00;64221.50;5077168;28;20200;-75
2022/06/29 09:34:45;;;;;;;6.80;4.70;;;;;;;31.99;100.00;64232.53;5073222;28;20207;-75
2022/06/29 09:37:16;;;;;;;11.83;4.53;;;;;;;31.88;100.00;64223.13;5072533;28;20281;-73
2022/06/29 09:39:44;;;;;;;6.23;4.33;;;;;;;31.95;100.00;64228.16;5072733;28;20200;-75
2022/06/29 09:42:13;;;;;;;9.23;4.63;;;;;;;31.79;100.00;64213.31;5072351;28;20204;-73
2022/06/29 09:44:41;;;;;;;5.73;4.30;;;;;;;32.00;100.00;64230.97;5066198;28;20284;-73
2022/06/29 09:47:11;;;;;;;8.43;4.83;;;;;;;32.20;100.00;64263.38;5052716;28;20205;-73
2022/06/29 09:49:39;;;;;;;12.87;4.97;;;;;;;32.02;100.00;64232.63;5052719;28;20578;-74
2022/06/29 09:52:08;;;;;;;6.30;4.33;;;;;;;32.04;100.00;64243.25;5052419;28;20224;-77
2022/06/29 09:54:40;;;;;;;7.53;4.30;;;;;;;31.89;100.00;64224.22;5052229;28;20209;-74
2022/06/29 09:57:09;;;;;;;6.23;4.57;;;;;;;31.67;100.00;64197.56;5052532;28;20209;-74
2022/06/29 10:02:37;;;;;;;5.10;4.17;;;;;;;32.02;100.00;64235.25;5052443;28;20335;-73
2022/06/29 10:05:08;;;;;;;5.60;4.50;;;;;;;32.12;100.00;64252.00;5058495;28;20204;-74
2022/06/29 10:07:40;;;;;;;5.30;4.17;;;;;;;32.34;100.00;64273.41;5072052;28;20618;-74
2022/06/29 10:10:09;;;;;;;10.83;5.17;;;;;;;32.10;100.00;64244.53;5072062;28;20221;-75
2022/06/29 10:16:08;;;;;;;9.20;4.67;;;;;;;32.31;100.00;64269.56;5071963;28;20242;-75
2022/06/29 10:19:15;;;;;;;4.90;3.80;;;;;;;32.43;100.00;64280.59;5071917;28;20208;-75
2022/06/29 10:21:42;;;;;;;6.77;4.13;;;;;;;32.49;100.00;64288.72;5063375;28;20200;-74
2022/06/29 10:24:10;;;;;;;8.40;4.73;;;;;;;32.40;100.00;64282.59;5072032;28;20224;-74
2022/06/29 10:26:48;;;;;;;8.03;4.67;;;;;;;32.75;100.00;64317.13;5072103;28;20244;-75
2022/06/29 10:29:36;;;;;;;4.90;4.40;;;;;;;32.27;100.00;64265.75;5071415;28;20306;-74
2022/06/29 10:32:15;;;;;;;6.77;4.73;;;;;;;32.01;100.00;64236.81;5068162;28;20212;-75
2022/06/29 10:37:32;;;;;;;3.93;3.53;;;;;;;31.99;100.00;64235.19;5066201;28;20215;-74
2022/06/29 10:40:18;;;;;;;8.23;3.93;;;;;;;32.78;100.00;64317.78;5070278;28;20285;-76
2022/06/29 10:45:42;;;;;;;12.73;4.30;;;;;;;31.97;100.00;64233.00;5057919;28;20302;-74
2022/06/29 10:48:17;;;;;;;5.87;3.60;;;;;;;32.27;100.00;64265.75;5037554;28;20361;-75
2022/06/29 10:50:47;;;;;;;7.63;3.53;;;;;;;32.57;100.00;64295.38;5051244;28;20231;-75
2022/06/29 10:53:23;;;;;;;6.50;3.60;;;;;;;32.74;100.00;64316.56;5062548;28;20227;-74
2022/06/29 10:55:54;;;;;;;4.27;3.43;;;;;;;32.80;100.00;64327.88;5071336;28;20611;-74
2022/06/29 10:58:23;;;;;;;8.43;3.70;;;;;;;32.78;100.00;64320.41;5071241;28;20205;-74
2022/06/29 11:00:53;;;;;;;3.87;3.53;;;;;;;33.04;100.00;64343.56;5070896;28;20212;-75
2022/06/29 11:03:22;;;;;;;7.30;3.47;;;;;;;33.33;100.00;64377.91;5071486;28;20253;-75
2022/06/29 11:17:05;;;;;;;6.10;3.37;;;;;;;32.37;100.00;64287.25;5071437;28;20243;-74
2022/06/29 11:19:53;;;;;;;4.83;3.60;;;;;;;31.71;100.00;64201.94;5070749;28;20691;-75
2022/06/29 11:22:20;;;;;;;3.87;3.23;;;;;;;31.68;100.00;64198.66;5071203;28;20221;-73
2022/06/29 11:24:55;;;;;;;7.83;3.60;;;;;;;32.39;100.00;64278.88;5071110;28;20207;-74
2022/06/29 11:27:37;;;;;;;5.73;3.10;;;;;;;33.19;100.00;64365.78;5075876;28;20285;-73
2022/06/29 11:30:07;;;;;;;5.00;3.20;;;;;;;33.76;100.00;64424.94;5072174;28;20295;-72
2022/06/29 11:32:39;;;;;;;7.50;3.60;;;;;;;33.71;100.00;64418.91;5070966;28;20221;-74
2022/06/29 11:35:08;;;;;;;5.50;3.53;;;;;;;33.59;100.00;64406.34;5071232;28;20268;-74
2022/06/29 11:37:35;;;;;;;9.90;3.47;;;;;;;33.79;100.00;64430.88;5070720;28;20234;-73
2022/06/29 11:40:03;;;;;;;4.60;3.57;;;;;;;33.68;100.00;64418.28;5070909;28;20219;-75
2022/06/29 11:45:19;;;;;;;5.43;3.57;;;;;;;33.95;100.00;64445.72;5059112;28;20710;-74
2022/06/29 11:47:54;;;;;;;6.57;3.43;;;;;;;34.19;100.00;64470.91;5050773;28;20200;-74
2022/06/29 11:50:23;;;;;;;4.70;3.60;;;;;;;33.91;100.00;64444.00;5050693;28;20221;-74
2022/06/29 11:52:51;;;;;;;9.03;3.50;;;;;;;34.12;100.00;64463.78;5050478;28;20235;-74
2022/06/29 11:55:39;;;;;;;8.53;3.67;;;;;;;34.02;98.59;64450.75;5050575;28;20660;-74
2022/06/29 11:58:06;;;;;;;7.73;3.60;;;;;;;34.02;92.26;64450.22;5068465;28;20212;-74
2022/06/29 12:00:39;;;;;;;7.17;3.33;;;;;;;34.35;89.08;64491.06;5067285;28;20204;-75
2022/06/29 12:03:08;;;;;;;5.17;3.13;;;;;;;34.20;89.85;64474.63;5069001;28;20691;-74